sensor_id;sensor_type;location;lat;lon;timestamp;temperature;humidity
42663;DHT22;44330;51.360;6.686;2022-12-18T00:03:52;-3.50;69.10
42663;DHT22;44330;51.360;6.686;2022-12-18T00:06:18;-3.50;68.30
42663;DHT22;44330;51.360;6.686;2022-12-18T00:08:44;-3.40;67.70
42663;DHT22;44330;51.360;6.686;2022-12-18T00:11:15;-3.40;66.90
42663;DHT22;44330;51.360;6.686;2022-12-18T00:13:41;-3.50;67.20
42663;DHT22;44330;51.360;6.686;2022-12-18T00:16:10;-3.50;66.90
42663;DHT22;44330;51.360;6.686;2022-12-18T00:18:36;-3.50;67.60
42663;DHT22;44330;51.360;6.686;2022-12-18T00:21:04;-3.40;67.10
42663;DHT22;44330;51.360;6.686;2022-12-18T00:23:31;-3.40;65.10
42663;DHT22;44330;51.360;6.686;2022-12-18T00:26:00;-3.40;64.30
42663;DHT22;44330;51.360;6.686;2022-12-18T00:28:26;-3.40;64.80
42663;DHT22;44330;51.360;6.686;2022-12-18T00:31:09;-3.40;64.80
42663;DHT22;44330;51.360;6.686;2022-12-18T00:33:35;-3.40;65.10
42663;DHT22;44330;51.360;6.686;2022-12-18T00:36:10;-3.40;64.70
42663;DHT22;44330;51.360;6.686;2022-12-18T00:38:36;-3.40;63.80
42663;DHT22;44330;51.360;6.686;2022-12-18T00:41:03;-3.40;63.80
42663;DHT22;44330;51.360;6.686;2022-12-18T00:43:29;-3.50;64.10
42663;DHT22;44330;51.360;6.686;2022-12-18T00:45:54;-3.40;65.10
42663;DHT22;44330;51.360;6.686;2022-12-18T00:48:23;-3.40;64.00
42663;DHT22;44330;51.360;6.686;2022-12-18T00:50:49;-3.30;62.30
42663;DHT22;44330;51.360;6.686;2022-12-18T00:53:15;-3.30;61.80
42663;DHT22;44330;51.360;6.686;2022-12-18T00:55:41;-3.20;62.40
42663;DHT22;44330;51.360;6.686;2022-12-18T00:58:08;-3.30;62.30
42663;DHT22;44330;51.360;6.686;2022-12-18T01:00:33;-3.20;61.20
42663;DHT22;44330;51.360;6.686;2022-12-18T01:02:59;-3.20;59.90
42663;DHT22;44330;51.360;6.686;2022-12-18T01:05:25;-3.20;60.20
42663;DHT22;44330;51.360;6.686;2022-12-18T01:07:51;-3.20;60.10
42663;DHT22;44330;51.360;6.686;2022-12-18T01:10:16;-3.30;60.30
42663;DHT22;44330;51.360;6.686;2022-12-18T01:12:42;-3.30;61.00
42663;DHT22;44330;51.360;6.686;2022-12-18T01:15:09;-3.30;62.00
42663;DHT22;44330;51.360;6.686;2022-12-18T01:17:35;-3.30;61.00
42663;DHT22;44330;51.360;6.686;2022-12-18T01:20:01;-3.30;61.80
42663;DHT22;44330;51.360;6.686;2022-12-18T01:22:27;-3.30;61.30
42663;DHT22;44330;51.360;6.686;2022-12-18T01:24:52;-3.30;61.20
42663;DHT22;44330;51.360;6.686;2022-12-18T01:27:18;-3.30;61.70
42663;DHT22;44330;51.360;6.686;2022-12-18T01:29:43;-3.30;62.20
42663;DHT22;44330;51.360;6.686;2022-12-18T01:32:09;-3.40;62.60
42663;DHT22;44330;51.360;6.686;2022-12-18T01:34:37;-3.40;63.80
42663;DHT22;44330;51.360;6.686;2022-12-18T01:37:04;-3.50;64.70
42663;DHT22;44330;51.360;6.686;2022-12-18T01:39:30;-3.60;65.40
42663;DHT22;44330;51.360;6.686;2022-12-18T01:41:57;-3.60;65.70
42663;DHT22;44330;51.360;6.686;2022-12-18T01:50:13;-3.70;65.60
42663;DHT22;44330;51.360;6.686;2022-12-18T01:52:42;-3.80;66.60
42663;DHT22;44330;51.360;6.686;2022-12-18T01:55:08;-3.80;67.70
42663;DHT22;44330;51.360;6.686;2022-12-18T01:57:35;-3.80;67.50
42663;DHT22;44330;51.360;6.686;2022-12-18T02:00:06;-3.80;67.30
42663;DHT22;44330;51.360;6.686;2022-12-18T02:02:32;-3.90;67.20
42663;DHT22;44330;51.360;6.686;2022-12-18T02:04:58;-3.80;67.10
42663;DHT22;44330;51.360;6.686;2022-12-18T02:07:54;-3.90;66.80
42663;DHT22;44330;51.360;6.686;2022-12-18T02:10:45;-3.90;67.30
42663;DHT22;44330;51.360;6.686;2022-12-18T02:15:59;-4.00;68.00
42663;DHT22;44330;51.360;6.686;2022-12-18T02:18:36;-4.00;68.60
42663;DHT22;44330;51.360;6.686;2022-12-18T02:21:36;-4.00;68.40
42663;DHT22;44330;51.360;6.686;2022-12-18T02:26:36;-4.10;68.90
42663;DHT22;44330;51.360;6.686;2022-12-18T02:29:10;-4.10;69.10
42663;DHT22;44330;51.360;6.686;2022-12-18T02:31:45;-4.20;69.60
42663;DHT22;44330;51.360;6.686;2022-12-18T02:34:13;-4.20;70.40
42663;DHT22;44330;51.360;6.686;2022-12-18T02:36:41;-4.20;71.00
42663;DHT22;44330;51.360;6.686;2022-12-18T02:39:10;-4.20;71.00
42663;DHT22;44330;51.360;6.686;2022-12-18T02:41:36;-4.30;71.00
42663;DHT22;44330;51.360;6.686;2022-12-18T02:44:08;-4.30;71.50
42663;DHT22;44330;51.360;6.686;2022-12-18T02:46:46;-4.20;71.90
42663;DHT22;44330;51.360;6.686;2022-12-18T02:49:36;-4.20;71.30
42663;DHT22;44330;51.360;6.686;2022-12-18T02:52:25;-4.20;71.30
42663;DHT22;44330;51.360;6.686;2022-12-18T02:57:40;-4.20;71.50
42663;DHT22;44330;51.360;6.686;2022-12-18T03:00:12;-4.20;71.00
42663;DHT22;44330;51.360;6.686;2022-12-18T03:05:33;-4.20;71.40
42663;DHT22;44330;51.360;6.686;2022-12-18T03:08:18;-4.20;72.00
42663;DHT22;44330;51.360;6.686;2022-12-18T03:10:54;-4.00;72.10
42663;DHT22;44330;51.360;6.686;2022-12-18T03:13:28;-4.00;71.00
42663;DHT22;44330;51.360;6.686;2022-12-18T03:15:56;-4.00;70.70
42663;DHT22;44330;51.360;6.686;2022-12-18T03:18:38;-3.90;70.90
42663;DHT22;44330;51.360;6.686;2022-12-18T03:21:08;-3.90;70.70
42663;DHT22;44330;51.360;6.686;2022-12-18T03:23:42;-3.90;70.90
42663;DHT22;44330;51.360;6.686;2022-12-18T03:26:11;-3.90;70.80
42663;DHT22;44330;51.360;6.686;2022-12-18T03:28:46;-3.90;70.70
42663;DHT22;44330;51.360;6.686;2022-12-18T03:31:14;-3.90;70.70
42663;DHT22;44330;51.360;6.686;2022-12-18T03:33:54;-3.90;70.80
42663;DHT22;44330;51.360;6.686;2022-12-18T03:36:20;-3.90;70.60
42663;DHT22;44330;51.360;6.686;2022-12-18T03:38:45;-3.90;70.90
42663;DHT22;44330;51.360;6.686;2022-12-18T03:41:44;-3.80;71.60
42663;DHT22;44330;51.360;6.686;2022-12-18T03:44:25;-4.00;71.80
42663;DHT22;44330;51.360;6.686;2022-12-18T03:47:08;-4.00;72.00
42663;DHT22;44330;51.360;6.686;2022-12-18T03:52:28;-3.90;72.60
42663;DHT22;44330;51.360;6.686;2022-12-18T03:54:56;-3.90;72.80
42663;DHT22;44330;51.360;6.686;2022-12-18T03:57:26;-3.80;72.40
42663;DHT22;44330;51.360;6.686;2022-12-18T04:00:00;-3.70;71.80
42663;DHT22;44330;51.360;6.686;2022-12-18T04:02:26;-3.60;70.20
42663;DHT22;44330;51.360;6.686;2022-12-18T04:04:56;-3.50;68.20
42663;DHT22;44330;51.360;6.686;2022-12-18T04:07:24;-3.50;66.80
42663;DHT22;44330;51.360;6.686;2022-12-18T04:09:53;-3.40;66.40
42663;DHT22;44330;51.360;6.686;2022-12-18T04:12:20;-3.40;66.00
42663;DHT22;44330;51.360;6.686;2022-12-18T04:14:45;-3.60;65.60
42663;DHT22;44330;51.360;6.686;2022-12-18T04:17:11;-3.60;65.60
42663;DHT22;44330;51.360;6.686;2022-12-18T04:19:36;-3.70;66.60
42663;DHT22;44330;51.360;6.686;2022-12-18T04:22:02;-3.80;67.60
42663;DHT22;44330;51.360;6.686;2022-12-18T04:24:28;-3.80;68.60
42663;DHT22;44330;51.360;6.686;2022-12-18T04:26:54;-3.80;69.70
42663;DHT22;44330;51.360;6.686;2022-12-18T04:29:19;-3.90;70.20
42663;DHT22;44330;51.360;6.686;2022-12-18T04:31:45;-3.90;70.30
42663;DHT22;44330;51.360;6.686;2022-12-18T04:34:10;-3.90;70.60
42663;DHT22;44330;51.360;6.686;2022-12-18T04:36:36;-3.90;69.90
42663;DHT22;44330;51.360;6.686;2022-12-18T04:39:02;-4.00;69.70
42663;DHT22;44330;51.360;6.686;2022-12-18T04:41:27;-4.00;70.10
42663;DHT22;44330;51.360;6.686;2022-12-18T04:43:53;-4.10;70.50
42663;DHT22;44330;51.360;6.686;2022-12-18T04:46:18;-4.20;70.90
42663;DHT22;44330;51.360;6.686;2022-12-18T04:48:45;-4.20;71.50
42663;DHT22;44330;51.360;6.686;2022-12-18T04:51:12;-4.20;71.80
42663;DHT22;44330;51.360;6.686;2022-12-18T04:53:37;-4.20;71.90
42663;DHT22;44330;51.360;6.686;2022-12-18T04:56:14;-4.30;72.10
42663;DHT22;44330;51.360;6.686;2022-12-18T04:58:41;-4.30;72.70
42663;DHT22;44330;51.360;6.686;2022-12-18T05:01:07;-4.30;72.60
42663;DHT22;44330;51.360;6.686;2022-12-18T05:03:34;-4.40;72.50
42663;DHT22;44330;51.360;6.686;2022-12-18T05:06:00;-4.30;72.80
42663;DHT22;44330;51.360;6.686;2022-12-18T05:08:26;-4.40;72.70
42663;DHT22;44330;51.360;6.686;2022-12-18T05:11:06;-4.40;72.50
42663;DHT22;44330;51.360;6.686;2022-12-18T05:13:32;-4.50;73.40
42663;DHT22;44330;51.360;6.686;2022-12-18T05:15:58;-4.50;74.10
42663;DHT22;44330;51.360;6.686;2022-12-18T05:18:25;-4.50;74.20
42663;DHT22;44330;51.360;6.686;2022-12-18T05:20:51;-4.50;74.80
42663;DHT22;44330;51.360;6.686;2022-12-18T05:23:17;-4.50;74.40
42663;DHT22;44330;51.360;6.686;2022-12-18T05:26:05;-4.50;74.10
42663;DHT22;44330;51.360;6.686;2022-12-18T05:28:32;-4.50;74.40
42663;DHT22;44330;51.360;6.686;2022-12-18T05:31:00;-4.40;75.10
42663;DHT22;44330;51.360;6.686;2022-12-18T05:33:28;-4.40;75.00
42663;DHT22;44330;51.360;6.686;2022-12-18T05:35:55;-4.40;75.10
42663;DHT22;44330;51.360;6.686;2022-12-18T05:38:23;-4.30;75.40
42663;DHT22;44330;51.360;6.686;2022-12-18T05:40:50;-4.30;75.10
42663;DHT22;44330;51.360;6.686;2022-12-18T05:43:16;-4.20;75.10
42663;DHT22;44330;51.360;6.686;2022-12-18T05:45:42;-4.20;74.80
42663;DHT22;44330;51.360;6.686;2022-12-18T05:48:08;-4.30;74.80
42663;DHT22;44330;51.360;6.686;2022-12-18T05:50:35;-4.20;75.30
42663;DHT22;44330;51.360;6.686;2022-12-18T05:53:01;-4.30;76.10
42663;DHT22;44330;51.360;6.686;2022-12-18T05:55:27;-4.30;75.60
42663;DHT22;44330;51.360;6.686;2022-12-18T05:57:52;-4.20;75.40
42663;DHT22;44330;51.360;6.686;2022-12-18T06:00:18;-4.10;74.60
42663;DHT22;44330;51.360;6.686;2022-12-18T06:02:47;-4.10;74.00
42663;DHT22;44330;51.360;6.686;2022-12-18T06:05:12;-4.10;73.50
42663;DHT22;44330;51.360;6.686;2022-12-18T06:07:38;-4.10;73.70
42663;DHT22;44330;51.360;6.686;2022-12-18T06:10:04;-4.20;74.00
42663;DHT22;44330;51.360;6.686;2022-12-18T06:12:29;-4.20;73.70
42663;DHT22;44330;51.360;6.686;2022-12-18T06:14:55;-4.20;73.80
42663;DHT22;44330;51.360;6.686;2022-12-18T06:17:23;-4.20;73.80
42663;DHT22;44330;51.360;6.686;2022-12-18T06:19:52;-4.10;74.20
42663;DHT22;44330;51.360;6.686;2022-12-18T06:22:17;-4.10;74.10
42663;DHT22;44330;51.360;6.686;2022-12-18T06:24:43;-4.00;73.80
42663;DHT22;44330;51.360;6.686;2022-12-18T06:27:08;-4.10;73.00
42663;DHT22;44330;51.360;6.686;2022-12-18T06:29:34;-4.00;73.00
42663;DHT22;44330;51.360;6.686;2022-12-18T06:31:59;-4.10;72.40
42663;DHT22;44330;51.360;6.686;2022-12-18T06:34:25;-4.10;71.90
42663;DHT22;44330;51.360;6.686;2022-12-18T06:36:51;-4.10;71.90
42663;DHT22;44330;51.360;6.686;2022-12-18T06:39:16;-4.10;72.30
42663;DHT22;44330;51.360;6.686;2022-12-18T06:41:42;-4.10;72.70
42663;DHT22;44330;51.360;6.686;2022-12-18T06:44:07;-4.20;73.00
42663;DHT22;44330;51.360;6.686;2022-12-18T06:46:33;-4.20;72.30
42663;DHT22;44330;51.360;6.686;2022-12-18T06:48:58;-4.30;72.40
42663;DHT22;44330;51.360;6.686;2022-12-18T06:51:24;-4.30;73.40
42663;DHT22;44330;51.360;6.686;2022-12-18T06:53:50;-4.30;72.90
42663;DHT22;44330;51.360;6.686;2022-12-18T06:56:15;-4.20;72.80
42663;DHT22;44330;51.360;6.686;2022-12-18T06:58:41;-4.20;73.20
42663;DHT22;44330;51.360;6.686;2022-12-18T07:01:10;-4.10;72.20
42663;DHT22;44330;51.360;6.686;2022-12-18T07:03:37;-4.00;70.90
42663;DHT22;44330;51.360;6.686;2022-12-18T07:06:03;-4.10;70.20
42663;DHT22;44330;51.360;6.686;2022-12-18T07:08:30;-4.10;70.40
42663;DHT22;44330;51.360;6.686;2022-12-18T07:10:56;-4.00;70.70
42663;DHT22;44330;51.360;6.686;2022-12-18T07:13:21;-4.00;70.00
42663;DHT22;44330;51.360;6.686;2022-12-18T07:15:47;-4.10;69.60
42663;DHT22;44330;51.360;6.686;2022-12-18T07:18:12;-4.20;70.20
42663;DHT22;44330;51.360;6.686;2022-12-18T07:20:38;-4.10;70.60
42663;DHT22;44330;51.360;6.686;2022-12-18T07:23:05;-4.20;70.50
42663;DHT22;44330;51.360;6.686;2022-12-18T07:25:35;-4.20;70.80
42663;DHT22;44330;51.360;6.686;2022-12-18T07:28:00;-4.20;71.10
42663;DHT22;44330;51.360;6.686;2022-12-18T07:30:26;-4.20;70.90
42663;DHT22;44330;51.360;6.686;2022-12-18T07:32:51;-4.10;71.60
42663;DHT22;44330;51.360;6.686;2022-12-18T07:35:17;-4.10;71.90
42663;DHT22;44330;51.360;6.686;2022-12-18T07:37:42;-4.00;71.30
42663;DHT22;44330;51.360;6.686;2022-12-18T07:40:09;-3.90;70.60
42663;DHT22;44330;51.360;6.686;2022-12-18T07:42:34;-3.90;69.30
42663;DHT22;44330;51.360;6.686;2022-12-18T07:45:02;-3.80;69.10
42663;DHT22;44330;51.360;6.686;2022-12-18T07:47:28;-3.70;68.00
42663;DHT22;44330;51.360;6.686;2022-12-18T07:49:54;-3.60;67.80
42663;DHT22;44330;51.360;6.686;2022-12-18T07:52:20;-3.40;65.40
42663;DHT22;44330;51.360;6.686;2022-12-18T07:54:46;-3.30;62.20
42663;DHT22;44330;51.360;6.686;2022-12-18T07:57:14;-3.10;60.50
42663;DHT22;44330;51.360;6.686;2022-12-18T07:59:39;-3.00;57.60
42663;DHT22;44330;51.360;6.686;2022-12-18T08:02:05;-3.00;56.80
42663;DHT22;44330;51.360;6.686;2022-12-18T08:04:30;-2.80;53.00
42663;DHT22;44330;51.360;6.686;2022-12-18T08:06:56;-2.70;51.40
42663;DHT22;44330;51.360;6.686;2022-12-18T08:09:22;-2.60;49.20
42663;DHT22;44330;51.360;6.686;2022-12-18T08:11:47;-2.60;48.80
42663;DHT22;44330;51.360;6.686;2022-12-18T08:14:16;-2.60;49.20
42663;DHT22;44330;51.360;6.686;2022-12-18T08:16:44;-2.50;48.40
42663;DHT22;44330;51.360;6.686;2022-12-18T08:19:10;-2.40;47.40
42663;DHT22;44330;51.360;6.686;2022-12-18T08:21:35;-2.40;48.30
42663;DHT22;44330;51.360;6.686;2022-12-18T08:24:01;-2.50;49.80
42663;DHT22;44330;51.360;6.686;2022-12-18T08:26:29;-2.50;50.90
42663;DHT22;44330;51.360;6.686;2022-12-18T08:28:56;-2.50;51.60
42663;DHT22;44330;51.360;6.686;2022-12-18T08:31:23;-2.40;51.30
42663;DHT22;44330;51.360;6.686;2022-12-18T08:33:51;-2.40;52.40
42663;DHT22;44330;51.360;6.686;2022-12-18T08:36:18;-2.30;50.70
42663;DHT22;44330;51.360;6.686;2022-12-18T08:38:44;-2.30;49.60
42663;DHT22;44330;51.360;6.686;2022-12-18T08:41:12;-2.20;47.80
42663;DHT22;44330;51.360;6.686;2022-12-18T08:43:38;-2.20;49.30
42663;DHT22;44330;51.360;6.686;2022-12-18T08:46:24;-2.20;49.50
42663;DHT22;44330;51.360;6.686;2022-12-18T08:48:51;-2.10;50.80
42663;DHT22;44330;51.360;6.686;2022-12-18T08:51:17;-2.20;50.80
42663;DHT22;44330;51.360;6.686;2022-12-18T08:53:43;-2.10;47.80
42663;DHT22;44330;51.360;6.686;2022-12-18T08:56:10;-2.10;49.50
42663;DHT22;44330;51.360;6.686;2022-12-18T08:58:35;-2.00;48.30
42663;DHT22;44330;51.360;6.686;2022-12-18T09:01:02;-1.90;44.30
42663;DHT22;44330;51.360;6.686;2022-12-18T09:03:29;-1.70;37.90
42663;DHT22;44330;51.360;6.686;2022-12-18T09:05:54;-1.70;33.90
42663;DHT22;44330;51.360;6.686;2022-12-18T09:08:20;-1.60;35.00
42663;DHT22;44330;51.360;6.686;2022-12-18T09:10:48;-1.50;32.00
42663;DHT22;44330;51.360;6.686;2022-12-18T09:13:14;-1.50;29.70
42663;DHT22;44330;51.360;6.686;2022-12-18T09:15:45;-1.40;30.00
42663;DHT22;44330;51.360;6.686;2022-12-18T09:18:11;-1.30;29.20
42663;DHT22;44330;51.360;6.686;2022-12-18T09:20:37;-1.30;25.20
42663;DHT22;44330;51.360;6.686;2022-12-18T09:23:03;-1.40;23.10
42663;DHT22;44330;51.360;6.686;2022-12-18T09:25:30;-1.30;21.00
42663;DHT22;44330;51.360;6.686;2022-12-18T09:28:00;-1.20;18.60
42663;DHT22;44330;51.360;6.686;2022-12-18T09:30:26;-1.10;20.10
42663;DHT22;44330;51.360;6.686;2022-12-18T09:32:52;-1.00;11.80
42663;DHT22;44330;51.360;6.686;2022-12-18T09:35:17;-1.00;13.50
42663;DHT22;44330;51.360;6.686;2022-12-18T09:37:43;-0.80;9.00
42663;DHT22;44330;51.360;6.686;2022-12-18T09:40:20;-0.80;7.20
42663;DHT22;44330;51.360;6.686;2022-12-18T09:42:54;-0.70;6.80
42663;DHT22;44330;51.360;6.686;2022-12-18T09:45:21;-0.70;1.10
42663;DHT22;44330;51.360;6.686;2022-12-18T09:47:48;-0.60;4.30
42663;DHT22;44330;51.360;6.686;2022-12-18T09:50:32;-0.60;3.50
42663;DHT22;44330;51.360;6.686;2022-12-18T09:53:04;-0.50;5.40
42663;DHT22;44330;51.360;6.686;2022-12-18T09:55:32;-0.50;1.00
42663;DHT22;44330;51.360;6.686;2022-12-18T09:58:05;-0.40;2.70
42663;DHT22;44330;51.360;6.686;2022-12-18T10:00:31;-0.40;1.00
42663;DHT22;44330;51.360;6.686;2022-12-18T10:03:03;-0.40;1.00
42663;DHT22;44330;51.360;6.686;2022-12-18T10:05:37;-0.30;1.00
42663;DHT22;44330;51.360;6.686;2022-12-18T10:08:17;-0.30;1.00
42663;DHT22;44330;51.360;6.686;2022-12-18T10:10:51;-0.20;1.00
42663;DHT22;44330;51.360;6.686;2022-12-18T10:13:31;-0.20;1.00
42663;DHT22;44330;51.360;6.686;2022-12-18T10:16:14;-0.10;1.00
42663;DHT22;44330;51.360;6.686;2022-12-18T10:19:01;-0.10;1.00
42663;DHT22;44330;51.360;6.686;2022-12-18T10:24:20;0.10;1.00
42663;DHT22;44330;51.360;6.686;2022-12-18T10:26:48;0.10;1.00
42663;DHT22;44330;51.360;6.686;2022-12-18T10:29:15;0.20;1.00
42663;DHT22;44330;51.360;6.686;2022-12-18T10:31:41;0.20;1.00
42663;DHT22;44330;51.360;6.686;2022-12-18T10:34:13;0.30;1.00
42663;DHT22;44330;51.360;6.686;2022-12-18T10:36:39;0.30;1.00
42663;DHT22;44330;51.360;6.686;2022-12-18T10:39:25;0.40;1.00
42663;DHT22;44330;51.360;6.686;2022-12-18T10:41:51;0.50;1.00
42663;DHT22;44330;51.360;6.686;2022-12-18T10:44:19;0.50;1.00
42663;DHT22;44330;51.360;6.686;2022-12-18T10:47:02;0.60;1.00
42663;DHT22;44330;51.360;6.686;2022-12-18T10:49:32;0.60;1.00
42663;DHT22;44330;51.360;6.686;2022-12-18T10:52:18;0.70;1.00
42663;DHT22;44330;51.360;6.686;2022-12-18T10:54:55;0.70;1.00
42663;DHT22;44330;51.360;6.686;2022-12-18T10:59:54;0.70;1.00
42663;DHT22;44330;51.360;6.686;2022-12-18T11:02:37;0.80;1.00
42663;DHT22;44330;51.360;6.686;2022-12-18T11:07:50;0.80;1.00
42663;DHT22;44330;51.360;6.686;2022-12-18T11:10:20;0.90;1.00
42663;DHT22;44330;51.360;6.686;2022-12-18T11:12:47;0.90;1.00
42663;DHT22;44330;51.360;6.686;2022-12-18T11:15:19;1.00;1.00
42663;DHT22;44330;51.360;6.686;2022-12-18T11:17:48;1.00;99.90
42663;DHT22;44330;51.360;6.686;2022-12-18T11:20:38;1.10;99.90
42663;DHT22;44330;51.360;6.686;2022-12-18T11:23:10;1.10;99.90
42663;DHT22;44330;51.360;6.686;2022-12-18T11:25:37;1.20;99.90
42663;DHT22;44330;51.360;6.686;2022-12-18T11:30:49;1.30;1.00
42663;DHT22;44330;51.360;6.686;2022-12-18T11:33:16;1.30;99.90
42663;DHT22;44330;51.360;6.686;2022-12-18T11:35:49;1.30;99.90
42663;DHT22;44330;51.360;6.686;2022-12-18T11:44:01;1.40;99.90
42663;DHT22;44330;51.360;6.686;2022-12-18T11:46:34;1.40;99.90
42663;DHT22;44330;51.360;6.686;2022-12-18T11:49:08;1.50;99.90
42663;DHT22;44330;51.360;6.686;2022-12-18T11:54:14;1.50;99.90
42663;DHT22;44330;51.360;6.686;2022-12-18T11:59:50;1.40;99.90
42663;DHT22;44330;51.360;6.686;2022-12-18T12:02:41;1.40;99.90
42663;DHT22;44330;51.360;6.686;2022-12-18T12:08:58;1.40;99.90
42663;DHT22;44330;51.360;6.686;2022-12-18T12:14:06;1.40;99.90
42663;DHT22;44330;51.360;6.686;2022-12-18T12:19:51;1.50;99.90
42663;DHT22;44330;51.360;6.686;2022-12-18T12:22:33;1.40;99.90
42663;DHT22;44330;51.360;6.686;2022-12-18T12:25:19;1.40;99.90
42663;DHT22;44330;51.360;6.686;2022-12-18T12:36:53;1.40;99.90
42663;DHT22;44330;51.360;6.686;2022-12-18T12:39:30;1.30;99.90
42663;DHT22;44330;51.360;6.686;2022-12-18T12:42:01;1.40;99.90
42663;DHT22;44330;51.360;6.686;2022-12-18T12:44:50;1.30;99.90
42663;DHT22;44330;51.360;6.686;2022-12-18T12:47:22;1.30;99.90
42663;DHT22;44330;51.360;6.686;2022-12-18T12:49:50;1.30;99.90
42663;DHT22;44330;51.360;6.686;2022-12-18T12:54:53;1.40;99.90
42663;DHT22;44330;51.360;6.686;2022-12-18T12:57:36;1.40;99.90
42663;DHT22;44330;51.360;6.686;2022-12-18T13:00:11;1.30;99.90
42663;DHT22;44330;51.360;6.686;2022-12-18T13:02:59;1.30;99.90
42663;DHT22;44330;51.360;6.686;2022-12-18T13:08:09;1.30;99.90
42663;DHT22;44330;51.360;6.686;2022-12-18T13:10:37;1.30;99.90
42663;DHT22;44330;51.360;6.686;2022-12-18T13:13:11;1.30;99.90
42663;DHT22;44330;51.360;6.686;2022-12-18T13:15:43;1.30;99.90
42663;DHT22;44330;51.360;6.686;2022-12-18T13:21:01;1.30;99.90
42663;DHT22;44330;51.360;6.686;2022-12-18T13:23:31;1.30;99.90
42663;DHT22;44330;51.360;6.686;2022-12-18T13:31:01;1.20;99.90
42663;DHT22;44330;51.360;6.686;2022-12-18T13:33:37;1.10;99.90
42663;DHT22;44330;51.360;6.686;2022-12-18T13:38:47;1.00;99.90
42663;DHT22;44330;51.360;6.686;2022-12-18T13:41:33;1.10;99.90
42663;DHT22;44330;51.360;6.686;2022-12-18T13:46:57;1.00;99.90
42663;DHT22;44330;51.360;6.686;2022-12-18T13:52:17;1.00;99.90
42663;DHT22;44330;51.360;6.686;2022-12-18T13:54:50;1.00;99.90
42663;DHT22;44330;51.360;6.686;2022-12-18T13:59:55;1.00;99.90
42663;DHT22;44330;51.360;6.686;2022-12-18T14:02:23;1.00;99.90
42663;DHT22;44330;51.360;6.686;2022-12-18T14:04:51;1.10;99.90
42663;DHT22;44330;51.360;6.686;2022-12-18T14:07:19;1.10;99.90
42663;DHT22;44330;51.360;6.686;2022-12-18T14:10:11;1.10;99.90
42663;DHT22;44330;51.360;6.686;2022-12-18T14:12:38;1.00;99.90
42663;DHT22;44330;51.360;6.686;2022-12-18T14:17:59;1.10;99.90
42663;DHT22;44330;51.360;6.686;2022-12-18T14:20:26;1.00;99.90
42663;DHT22;44330;51.360;6.686;2022-12-18T14:22:52;1.10;99.90
42663;DHT22;44330;51.360;6.686;2022-12-18T14:25:19;1.00;99.90
42663;DHT22;44330;51.360;6.686;2022-12-18T14:30:43;1.00;99.90
42663;DHT22;44330;51.360;6.686;2022-12-18T14:33:11;1.00;99.90
42663;DHT22;44330;51.360;6.686;2022-12-18T14:41:09;0.90;99.90
42663;DHT22;44330;51.360;6.686;2022-12-18T14:43:37;0.90;99.90
42663;DHT22;44330;51.360;6.686;2022-12-18T14:46:25;0.90;99.90
42663;DHT22;44330;51.360;6.686;2022-12-18T14:48:50;0.90;99.90
42663;DHT22;44330;51.360;6.686;2022-12-18T14:51:20;0.90;99.90
42663;DHT22;44330;51.360;6.686;2022-12-18T14:53:57;0.90;99.90
42663;DHT22;44330;51.360;6.686;2022-12-18T14:56:35;0.90;99.90
42663;DHT22;44330;51.360;6.686;2022-12-18T14:59:06;0.90;99.90
42663;DHT22;44330;51.360;6.686;2022-12-18T15:04:44;0.90;99.90
42663;DHT22;44330;51.360;6.686;2022-12-18T15:07:21;0.80;99.90
42663;DHT22;44330;51.360;6.686;2022-12-18T15:10:21;0.80;99.90
42663;DHT22;44330;51.360;6.686;2022-12-18T15:12:49;0.80;99.90
42663;DHT22;44330;51.360;6.686;2022-12-18T15:20:42;0.70;99.90
42663;DHT22;44330;51.360;6.686;2022-12-18T15:23:20;0.80;99.90
42663;DHT22;44330;51.360;6.686;2022-12-18T15:25:49;0.70;99.90
42663;DHT22;44330;51.360;6.686;2022-12-18T15:28:24;0.70;99.90
42663;DHT22;44330;51.360;6.686;2022-12-18T15:31:01;0.70;99.90
42663;DHT22;44330;51.360;6.686;2022-12-18T15:33:31;0.70;99.90
42663;DHT22;44330;51.360;6.686;2022-12-18T15:35:59;0.70;99.90
42663;DHT22;44330;51.360;6.686;2022-12-18T15:38:26;0.70;99.90
42663;DHT22;44330;51.360;6.686;2022-12-18T15:40:53;0.70;99.90
42663;DHT22;44330;51.360;6.686;2022-12-18T15:43:21;0.60;99.90
42663;DHT22;44330;51.360;6.686;2022-12-18T15:46:00;0.60;99.90
42663;DHT22;44330;51.360;6.686;2022-12-18T15:48:26;0.60;99.90
42663;DHT22;44330;51.360;6.686;2022-12-18T15:50:53;0.60;1.00
42663;DHT22;44330;51.360;6.686;2022-12-18T15:53:25;0.50;99.90
42663;DHT22;44330;51.360;6.686;2022-12-18T15:55:53;0.60;99.90
42663;DHT22;44330;51.360;6.686;2022-12-18T15:58:37;0.60;99.90
42663;DHT22;44330;51.360;6.686;2022-12-18T16:01:03;0.60;99.90
42663;DHT22;44330;51.360;6.686;2022-12-18T16:03:28;0.50;1.00
42663;DHT22;44330;51.360;6.686;2022-12-18T16:05:54;0.50;1.00
42663;DHT22;44330;51.360;6.686;2022-12-18T16:08:19;0.50;99.90
42663;DHT22;44330;51.360;6.686;2022-12-18T16:10:45;0.50;1.00
42663;DHT22;44330;51.360;6.686;2022-12-18T16:13:12;0.50;1.00
42663;DHT22;44330;51.360;6.686;2022-12-18T16:15:39;0.50;1.00
42663;DHT22;44330;51.360;6.686;2022-12-18T16:18:05;0.50;1.00
42663;DHT22;44330;51.360;6.686;2022-12-18T16:20:30;0.50;1.00
42663;DHT22;44330;51.360;6.686;2022-12-18T16:22:56;0.50;1.00
42663;DHT22;44330;51.360;6.686;2022-12-18T16:25:24;0.40;1.00
42663;DHT22;44330;51.360;6.686;2022-12-18T16:27:50;0.40;1.00
42663;DHT22;44330;51.360;6.686;2022-12-18T16:30:19;0.40;1.00
42663;DHT22;44330;51.360;6.686;2022-12-18T16:32:45;0.40;1.00
42663;DHT22;44330;51.360;6.686;2022-12-18T16:35:13;0.40;1.00
42663;DHT22;44330;51.360;6.686;2022-12-18T16:37:39;0.40;1.00
42663;DHT22;44330;51.360;6.686;2022-12-18T16:40:15;0.40;1.00
42663;DHT22;44330;51.360;6.686;2022-12-18T16:42:43;0.40;1.00
42663;DHT22;44330;51.360;6.686;2022-12-18T16:45:11;0.40;1.00
42663;DHT22;44330;51.360;6.686;2022-12-18T16:47:39;0.40;1.00
42663;DHT22;44330;51.360;6.686;2022-12-18T16:50:08;0.40;1.00
42663;DHT22;44330;51.360;6.686;2022-12-18T16:52:34;0.40;1.00
42663;DHT22;44330;51.360;6.686;2022-12-18T16:55:00;0.30;1.00
42663;DHT22;44330;51.360;6.686;2022-12-18T16:57:25;0.30;1.00
42663;DHT22;44330;51.360;6.686;2022-12-18T16:59:51;0.40;1.00
42663;DHT22;44330;51.360;6.686;2022-12-18T17:02:22;0.30;1.00
42663;DHT22;44330;51.360;6.686;2022-12-18T17:04:48;0.30;1.00
42663;DHT22;44330;51.360;6.686;2022-12-18T17:07:15;0.30;1.00
42663;DHT22;44330;51.360;6.686;2022-12-18T17:09:41;0.30;1.00
42663;DHT22;44330;51.360;6.686;2022-12-18T17:12:07;0.30;1.00
42663;DHT22;44330;51.360;6.686;2022-12-18T17:14:33;0.20;1.00
42663;DHT22;44330;51.360;6.686;2022-12-18T17:16:59;0.20;1.00
42663;DHT22;44330;51.360;6.686;2022-12-18T17:19:26;0.20;1.00
42663;DHT22;44330;51.360;6.686;2022-12-18T17:21:52;0.20;1.00
42663;DHT22;44330;51.360;6.686;2022-12-18T17:24:19;0.20;1.00
42663;DHT22;44330;51.360;6.686;2022-12-18T17:26:44;0.20;1.00
42663;DHT22;44330;51.360;6.686;2022-12-18T17:29:15;0.20;1.00
42663;DHT22;44330;51.360;6.686;2022-12-18T17:31:41;0.20;2.90
42663;DHT22;44330;51.360;6.686;2022-12-18T17:34:08;0.20;2.60
42663;DHT22;44330;51.360;6.686;2022-12-18T17:36:34;0.20;4.60
42663;DHT22;44330;51.360;6.686;2022-12-18T17:39:00;0.20;6.40
42663;DHT22;44330;51.360;6.686;2022-12-18T17:41:27;0.20;8.00